Ana Sayfa
METAR-TAF:

METAR-TAF

Havaalanları :

Brest, Beyaz Rusya

Enlem: 52-06-30N, Boylam: 023-53-48E, yükseklik: 143 m

Güncel hava durumu gözlemi

Rapor saat 05:00 UTC de 39 dakika önce yapıldı.
Rüzgar batı/güneybatıdan 6 kt
Sıcaklık -3°C
Nem 86%
Basınç 1020 hPa
Görüş mesafesi: 6000 m

METAR: UMBB 010500Z 24003MPS 6000 NSC M03/M05 Q1020 NOSIG

Saat: 08:39 (05:39 UTC)

Tahmin

Rapor saat 05:00 UTC de 39 dakika önce yapıldı.
Ayın 01'si saat 06 UTC'den ayın 01'si saat 15 UTC'ye kadar geçerli Tahmin
Rüzgar batıdan 10 kt ve 19 kt'a kadar ani rüzgarlar
Görüş mesafesi: 6000 m
2000 ft yükseklikte parçalı çok bulutlu
Geçici
ayın 01'si saat 07 UTC'den ayın 01'si saat 12 UTC'ye kadar
Rüzgar batıdan 16 kt ve 25 kt'a kadar ani rüzgarlar

TAF: UMBB 010500Z 0106/0115 26005G10MPS 6000 BKN020 TEMPO 0107/0112 28008G13MPS

4.000'den fazla havaalanı için hava durumu gözlemleri ve tahminleri (METAR ve TAF raporları).

Kullanılabilir istasyonlar harita üzerinde sarı ve kırmızı noktalarla gösterilir.

İstasyonun adını görmek için fareyi noktanın üzerinde gezdirin.

Sonrasında hava gözlem ve tahminlerini görmek için tıklayın.

Haritayı değiştirmek için: yaklaştırmak için siyah artı işaretli yeşil düğmeye ve uzaklaştırmak için de eksi işaretli düğmeye hızla tıklayın; bitişik haritalar için yeşil okları kullanın.


METAR-TAF: